Time;durP1;ratioP1;P1;durP2;ratioP2;P2;SDS_P1;SDS_P2;PMS_P1;PMS_P2;Temp;Humidity;BMP_temperature;BMP_pressure;BME280_temperature;BME280_humidity;BME280_pressure;Samples;Min_cycle;Max_cycle;Signal;HPM_P1;HPM_P2
2022/12/19 00:03:26;;;;;;;24.40;9.90;;;;;;;-8.11;82.64;101911.00;207091;1290;139755;-61
2022/12/19 00:08:32;;;;;;;21.30;8.80;;;;;;;-8.12;82.59;101904.66;207564;1283;139217;-63
2022/12/19 00:13:37;;;;;;;29.80;14.20;;;;;;;-8.17;82.56;101895.19;208274;1291;139412;-63
2022/12/19 00:18:46;;;;;;;26.80;13.50;;;;;;;-8.24;82.70;101884.61;207430;1291;140734;-60
2022/12/19 00:23:52;;;;;;;16.10;8.20;;;;;;;-8.30;82.83;101878.50;207435;1289;139617;-62
2022/12/19 00:29:04;;;;;;;23.20;10.70;;;;;;;-8.38;82.53;101868.52;207476;1283;140595;-62
2022/12/19 00:34:15;;;;;;;16.70;7.90;;;;;;;-8.46;82.61;101869.67;207909;1289;221575;-61
2022/12/19 00:39:21;;;;;;;27.70;11.80;;;;;;;-8.53;82.64;101868.71;207026;1291;141311;-64
2022/12/19 00:44:27;;;;;;;35.30;15.40;;;;;;;-8.57;82.38;101867.70;207451;1291;139730;-63
2022/12/19 00:49:30;;;;;;;21.60;11.30;;;;;;;-8.66;82.51;101868.59;208159;1302;139595;-63
2022/12/19 00:54:35;;;;;;;15.50;10.10;;;;;;;-8.69;82.34;101872.33;208609;1283;139885;-62
2022/12/19 00:59:39;;;;;;;15.10;8.70;;;;;;;-8.74;82.43;101871.31;207409;1299;140030;-62
2022/12/19 01:04:44;;;;;;;33.60;14.20;;;;;;;-8.76;82.47;101862.77;208512;1286;141675;-62
2022/12/19 01:09:48;;;;;;;25.00;12.00;;;;;;;-8.78;82.43;101856.11;209572;1300;140592;-62
2022/12/19 01:14:56;;;;;;;27.50;11.60;;;;;;;-8.85;82.21;101844.31;207652;1306;139381;-63
2022/12/19 01:20:09;;;;;;;23.90;11.60;;;;;;;-8.91;82.03;101835.13;209659;1299;140836;-62
2022/12/19 01:25:14;;;;;;;24.20;11.00;;;;;;;-9.03;82.00;101828.14;209768;1293;139473;-61
2022/12/19 01:30:19;;;;;;;22.10;11.80;;;;;;;-9.08;81.88;101819.05;209785;1300;140461;-62
2022/12/19 01:35:25;;;;;;;22.20;11.00;;;;;;;-9.15;82.01;101811.04;208951;1290;141982;-63
2022/12/19 01:40:30;;;;;;;14.30;8.70;;;;;;;-9.20;82.12;101802.10;209110;1299;141218;-62
2022/12/19 01:45:36;;;;;;;34.70;15.00;;;;;;;-9.25;82.07;101798.52;207748;1299;140432;-62
2022/12/19 01:50:55;;;;;;;24.20;10.30;;;;;;;-9.28;82.15;101796.90;208217;1302;139766;-64
2022/12/19 01:56:09;;;;;;;28.90;11.40;;;;;;;-9.33;82.42;101788.48;208018;1300;245359;-65
2022/12/19 02:01:16;;;;;;;32.70;14.30;;;;;;;-9.35;82.30;101783.22;208441;1303;139548;-62
2022/12/19 02:06:22;;;;;;;;;;;;;;;-9.40;82.39;101781.67;208133;1294;139973;-62
2022/12/19 02:11:26;;;;;;;25.30;13.50;;;;;;;-9.45;82.50;101778.45;207928;1294;127933;-60
2022/12/19 02:16:53;;;;;;;28.50;13.00;;;;;;;-9.47;82.66;101768.89;208001;1290;140078;-62
2022/12/19 02:22:22;;;;;;;22.10;12.80;;;;;;;-9.41;82.72;101756.10;207725;1300;140427;-62
2022/12/19 02:27:30;;;;;;;20.60;9.40;;;;;;;-9.40;82.58;101748.13;207558;1294;140159;-59
2022/12/19 02:32:50;;;;;;;17.40;9.90;;;;;;;-9.40;82.31;101740.73;207876;1300;150980;-60
2022/12/19 02:38:00;;;;;;;30.30;12.40;;;;;;;-9.41;82.39;101745.55;207323;1297;140471;-60
2022/12/19 02:43:11;;;;;;;22.30;10.90;;;;;;;-9.39;82.76;101740.01;207107;1297;139859;-60
2022/12/19 02:48:17;;;;;;;;;;;;;;;-9.38;82.36;101742.72;208060;1299;142316;-61
2022/12/19 02:53:23;;;;;;;29.30;12.90;;;;;;;-9.38;82.46;101743.56;208367;1299;126574;-61
2022/12/19 02:58:37;;;;;;;23.40;12.20;;;;;;;-9.35;82.51;101737.77;207500;1290;140166;-60
2022/12/19 03:03:45;;;;;;;13.60;7.10;;;;;;;-9.29;82.41;101735.80;208007;1301;139725;-62
2022/12/19 03:09:34;;;;;;;31.30;13.50;;;;;;;-9.25;82.29;101722.23;208950;1306;140375;-61
2022/12/19 03:14:40;;;;;;;21.50;9.90;;;;;;;-9.27;81.94;101719.73;209342;1306;140703;-62
2022/12/19 03:19:44;;;;;;;23.50;9.40;;;;;;;-9.26;82.10;101718.50;209400;1304;140415;-62
2022/12/19 03:24:49;;;;;;;20.00;9.80;;;;;;;-9.19;81.91;101722.02;209693;1300;139686;-61
2022/12/19 03:30:10;;;;;;;23.60;10.70;;;;;;;-9.17;81.72;101728.50;209330;1292;139851;-64
2022/12/19 03:35:28;;;;;;;16.90;10.20;;;;;;;-9.22;81.47;101730.37;207318;1287;140937;-62
2022/12/19 03:40:35;;;;;;;29.00;12.10;;;;;;;-9.32;81.36;101726.81;208393;1296;141036;-62
2022/12/19 03:45:56;;;;;;;18.00;8.80;;;;;;;-9.41;81.53;101721.80;208206;1297;140439;-61
2022/12/19 03:51:07;;;;;;;17.60;10.40;;;;;;;-9.46;81.67;101715.12;208845;1296;139989;-60
2022/12/19 03:56:55;;;;;;;19.40;8.20;;;;;;;-9.49;81.47;101712.68;207253;1299;139786;-63
2022/12/19 04:02:02;;;;;;;22.00;10.10;;;;;;;-9.49;81.70;101714.08;207956;1306;141393;-61
2022/12/19 04:07:06;;;;;;;24.10;11.60;;;;;;;-9.52;81.42;101716.57;207483;1291;140117;-63
2022/12/19 04:12:17;;;;;;;22.50;10.60;;;;;;;-9.58;81.42;101715.95;207797;1289;139727;-61
2022/12/19 04:17:34;;;;;;;13.80;8.00;;;;;;;-9.65;81.35;101710.02;207922;1299;141007;-61
2022/12/19 04:23:05;;;;;;;17.70;10.20;;;;;;;-9.70;81.40;101700.75;207513;1299;139825;-63
2022/12/19 04:28:29;;;;;;;22.30;11.90;;;;;;;-9.74;81.38;101693.50;207121;1291;244933;-63
2022/12/19 04:33:34;;;;;;;21.10;13.20;;;;;;;-9.79;81.24;101682.52;207259;1297;140837;-60
2022/12/19 04:38:39;;;;;;;22.70;9.10;;;;;;;-9.82;81.51;101676.08;208468;1305;140495;-65
2022/12/19 04:43:43;;;;;;;17.10;10.40;;;;;;;-9.83;81.35;101666.17;207536;1299;139403;-61
2022/12/19 04:48:47;;;;;;;19.50;11.90;;;;;;;-9.88;81.38;101659.98;208208;1299;159364;-61
2022/12/19 04:53:53;;;;;;;13.50;8.70;;;;;;;-9.90;81.36;101655.40;207749;1301;140134;-62
2022/12/19 04:58:58;;;;;;;19.90;10.40;;;;;;;-9.93;81.34;101650.67;208824;1299;140276;-61
2022/12/19 05:04:03;;;;;;;19.10;10.60;;;;;;;-9.94;81.38;101647.44;208960;1291;141942;-62
2022/12/19 05:09:12;;;;;;;22.90;13.60;;;;;;;-9.96;81.49;101647.33;208955;1305;140357;-63
2022/12/19 05:14:17;;;;;;;25.40;11.40;;;;;;;-9.93;81.40;101649.65;209552;1302;140663;-62
2022/12/19 05:19:21;;;;;;;23.10;11.70;;;;;;;-9.91;81.07;101642.86;209614;1285;140292;-62
2022/12/19 05:24:26;;;;;;;37.40;14.50;;;;;;;-9.90;81.05;101639.03;209581;1300;140713;-62
2022/12/19 05:29:31;;;;;;;26.20;13.30;;;;;;;-9.93;80.93;101637.08;208680;1305;140253;-63
2022/12/19 05:34:36;;;;;;;29.20;15.40;;;;;;;-9.98;80.76;101632.83;208993;1300;139946;-62
2022/12/19 05:39:41;;;;;;;28.90;12.90;;;;;;;-10.03;81.12;101629.73;208457;1293;140373;-62
2022/12/19 05:44:47;;;;;;;29.10;15.20;;;;;;;-10.06;80.77;101623.30;208250;1289;140027;-63
2022/12/19 05:49:52;;;;;;;24.80;13.60;;;;;;;-10.05;80.86;101617.45;207595;1297;140965;-64
2022/12/19 05:54:57;;;;;;;32.80;13.50;;;;;;;-10.05;81.07;101616.20;208285;1299;140801;-62
2022/12/19 06:00:03;;;;;;;23.00;11.20;;;;;;;-10.05;80.89;101620.69;208485;1294;141022;-62
2022/12/19 06:05:08;;;;;;;30.40;11.90;;;;;;;-10.04;80.94;101620.48;207081;1290;141305;-64
2022/12/19 06:10:14;;;;;;;28.20;13.20;;;;;;;-10.04;80.73;101614.64;207495;1290;140220;-64
2022/12/19 06:15:20;;;;;;;32.00;12.20;;;;;;;-10.07;80.70;101609.26;208470;1292;141302;-64
2022/12/19 06:20:24;;;;;;;31.20;14.80;;;;;;;-10.10;80.83;101603.54;207477;1289;143572;-64
2022/12/19 06:25:28;;;;;;;19.80;12.80;;;;;;;-10.11;80.94;101599.27;208093;1299;141624;-64
2022/12/19 06:30:33;;;;;;;26.00;15.10;;;;;;;-10.10;80.85;101599.24;207023;1290;141807;-66
2022/12/19 06:35:37;;;;;;;29.30;14.80;;;;;;;-10.10;81.13;101596.30;207271;1293;142147;-65
2022/12/19 06:46:07;;;;;;;22.20;13.00;;;;;;;-10.03;80.66;101598.59;207567;1284;140787;-63
2022/12/19 06:51:13;;;;;;;38.30;14.20;;;;;;;-10.06;80.49;101588.55;207604;1299;449827;-65
2022/12/19 06:56:19;;;;;;;39.30;14.70;;;;;;;-10.12;80.57;101579.36;208038;1286;140047;-66
2022/12/19 07:01:39;;;;;;;33.80;14.60;;;;;;;-10.11;80.73;101576.59;208946;1303;140604;-62
2022/12/19 07:06:44;;;;;;;31.80;14.40;;;;;;;-10.05;80.37;101580.10;208657;1294;140676;-62
2022/12/19 07:11:52;;;;;;;31.50;17.00;;;;;;;-9.99;80.64;101568.88;209074;1299;140593;-62
2022/12/19 07:17:00;;;;;;;27.10;13.60;;;;;;;-9.92;80.59;101571.20;209492;1300;140532;-61
2022/12/19 07:22:05;;;;;;;34.40;18.90;;;;;;;-9.89;80.35;101576.92;209332;1299;140957;-62
2022/12/19 07:27:09;;;;;;;40.20;18.30;;;;;;;-9.89;80.17;101591.34;209061;1299;140730;-61
2022/12/19 07:32:12;;;;;;;26.00;14.70;;;;;;;-9.90;80.16;101598.45;208594;1290;139973;-61
2022/12/19 07:37:18;;;;;;;33.20;16.00;;;;;;;-9.91;80.23;101598.48;208810;1282;140527;-61
2022/12/19 07:42:22;;;;;;;31.30;15.00;;;;;;;-9.86;80.30;101589.70;208404;1299;140152;-62
2022/12/19 07:47:36;;;;;;;44.60;16.30;;;;;;;-9.76;80.34;101587.41;208194;1293;140574;-61
2022/12/19 07:52:41;;;;;;;42.80;18.50;;;;;;;-9.58;80.47;101590.48;207520;1297;140524;-62
2022/12/19 07:57:46;;;;;;;25.80;12.60;;;;;;;-9.36;80.60;101586.48;207517;1296;139730;-63
2022/12/19 08:02:50;;;;;;;48.90;19.70;;;;;;;-9.18;80.38;101587.80;208034;1300;140361;-61
2022/12/19 08:07:55;;;;;;;35.00;15.40;;;;;;;-8.97;80.40;101586.58;206987;1297;139455;-63
2022/12/19 08:13:00;;;;;;;32.10;15.40;;;;;;;-8.73;80.37;101583.49;207368;1293;140057;-62
2022/12/19 08:18:05;;;;;;;39.90;14.80;;;;;;;-8.54;80.40;101578.67;207760;1294;140709;-62
2022/12/19 08:23:09;;;;;;;29.80;14.40;;;;;;;-8.42;80.38;101562.28;206966;1300;233547;-61
2022/12/19 08:28:12;;;;;;;46.10;18.10;;;;;;;-8.27;80.35;101544.98;207803;1301;140563;-61
2022/12/19 08:33:17;;;;;;;35.20;17.40;;;;;;;-8.08;80.15;101546.88;207753;1294;140327;-64
2022/12/19 08:38:22;;;;;;;39.60;16.50;;;;;;;-7.93;79.83;101540.48;207965;1299;140557;-64
2022/12/19 08:43:27;;;;;;;30.30;14.30;;;;;;;-7.84;79.71;101529.34;208491;1303;139954;-61
2022/12/19 08:48:33;;;;;;;27.70;15.00;;;;;;;-7.75;79.53;101523.59;208542;1300;140660;-62
2022/12/19 08:53:40;;;;;;;41.70;14.30;;;;;;;-7.70;79.38;101522.12;206834;1300;140684;-64
2022/12/19 08:58:45;;;;;;;36.00;14.70;;;;;;;-7.54;79.49;101515.80;207547;1300;140971;-62
2022/12/19 09:03:50;;;;;;;38.50;18.30;;;;;;;-7.29;79.66;101521.25;208504;1289;141246;-61
2022/12/19 09:09:16;;;;;;;36.40;16.80;;;;;;;-7.03;79.57;101513.54;209338;1300;246772;-63
2022/12/19 09:14:20;;;;;;;24.40;12.40;;;;;;;-6.81;79.39;101506.35;209503;1300;140484;-62
2022/12/19 09:19:26;;;;;;;35.90;16.60;;;;;;;-6.62;79.13;101494.45;209488;1292;141370;-62
2022/12/19 09:24:30;;;;;;;42.00;16.70;;;;;;;-6.40;79.23;101488.08;209299;1292;140071;-62
2022/12/19 09:29:35;;;;;;;31.90;17.20;;;;;;;-6.27;79.19;101474.23;209045;1291;139679;-62
2022/12/19 09:34:39;;;;;;;35.70;15.30;;;;;;;-6.23;79.07;101450.81;208663;1296;140543;-62
2022/12/19 09:39:46;;;;;;;44.10;18.50;;;;;;;-6.16;79.16;101438.44;207281;1299;140187;-64
2022/12/19 09:44:59;;;;;;;43.80;18.70;;;;;;;-5.95;78.89;101434.66;208336;1305;140235;-65
2022/12/19 09:50:31;;;;;;;43.80;17.50;;;;;;;-5.75;79.10;101421.35;209080;1301;140852;-62
2022/12/19 09:55:39;;;;;;;37.10;17.50;;;;;;;-5.60;79.05;101414.77;206868;1299;139342;-63
2022/12/19 10:00:49;;;;;;;35.80;17.60;;;;;;;-5.38;78.80;101403.39;207422;1291;140549;-63
2022/12/19 10:06:05;;;;;;;30.20;13.40;;;;;;;-5.19;78.51;101397.77;207390;1287;139323;-60
2022/12/19 10:11:32;;;;;;;;;;;;;;;-5.03;78.44;101373.00;207138;1291;139112;-62
2022/12/19 10:16:58;;;;;;;37.20;15.80;;;;;;;-4.77;78.18;101367.73;208828;1300;127581;-67
2022/12/19 10:22:32;;;;;;;34.40;15.90;;;;;;;-4.61;77.94;101357.02;208846;1291;224213;-63
2022/12/19 10:27:43;;;;;;;35.90;18.30;;;;;;;-4.66;77.58;101352.64;208471;1293;141258;-62
2022/12/19 10:33:06;;;;;;;33.00;15.80;;;;;;;-4.50;77.53;101338.27;208202;1299;140188;-62
2022/12/19 10:38:34;;;;;;;34.30;16.60;;;;;;;-4.46;77.13;101336.42;207662;1291;139372;-63
2022/12/19 10:44:06;;;;;;;37.00;17.30;;;;;;;-4.48;76.71;101326.48;208293;1289;139411;-61
2022/12/19 10:49:16;;;;;;;36.50;15.60;;;;;;;-4.30;76.46;101318.74;208195;1292;140102;-64
2022/12/19 10:54:22;;;;;;;42.10;18.20;;;;;;;-4.15;77.06;101301.95;208854;1286;140214;-64
2022/12/19 10:59:36;;;;;;;26.60;15.50;;;;;;;-3.95;77.03;101291.19;209701;1299;140470;-63
2022/12/19 11:04:41;;;;;;;39.30;18.50;;;;;;;-3.77;76.46;101277.63;207776;1290;140032;-64
2022/12/19 11:09:46;;;;;;;34.50;16.90;;;;;;;-3.59;76.00;101264.07;209440;1300;139574;-62
2022/12/19 11:15:12;;;;;;;31.80;15.10;;;;;;;-3.54;75.36;101243.20;209666;1307;141361;-65
2022/12/19 11:20:37;;;;;;;25.40;14.60;;;;;;;-3.44;75.36;101243.51;209654;1293;140181;-64
2022/12/19 11:26:05;;;;;;;35.80;18.80;;;;;;;-3.12;75.21;101236.38;208404;1299;141197;-64
2022/12/19 11:31:31;;;;;;;34.70;16.10;;;;;;;-2.94;74.97;101226.22;209031;1293;140360;-65
2022/12/19 11:36:59;;;;;;;44.90;19.20;;;;;;;-2.89;74.33;101224.61;208701;1281;139718;-65
2022/12/19 11:42:07;;;;;;;29.60;13.60;;;;;;;-2.88;74.26;101213.21;208069;1291;140467;-64
2022/12/19 11:47:24;;;;;;;40.60;18.70;;;;;;;-2.78;74.14;101205.20;207991;1299;140423;-64
2022/12/19 11:53:04;;;;;;;28.00;16.00;;;;;;;-2.76;73.77;101218.08;208350;1290;139619;-64
2022/12/19 11:58:24;;;;;;;35.00;19.00;;;;;;;-2.81;73.79;101198.97;207731;1299;139320;-65
2022/12/19 12:04:00;;;;;;;38.30;18.20;;;;;;;-2.91;73.60;101194.52;206756;1292;140461;-65
2022/12/19 12:09:06;;;;;;;26.40;14.00;;;;;;;-2.99;73.69;101189.34;207403;1291;140939;-65
2022/12/19 12:15:02;;;;;;;28.80;16.80;;;;;;;-3.07;73.63;101174.11;207175;1286;141157;-67
2022/12/19 12:20:51;;;;;;;32.80;18.30;;;;;;;-3.16;73.61;101160.64;206435;1297;221893;-66
2022/12/19 12:26:32;;;;;;;40.80;20.40;;;;;;;-3.19;73.82;101162.09;206849;1286;245917;-64
2022/12/19 12:32:26;;;;;;;40.00;18.20;;;;;;;-3.16;73.78;101149.52;206651;1291;141048;-65
2022/12/19 12:38:15;;;;;;;44.00;19.00;;;;;;;-3.16;73.74;101144.33;207404;1300;141231;-64
2022/12/19 12:43:56;;;;;;;33.70;18.20;;;;;;;-3.24;73.64;101139.16;206612;1293;232339;-65
2022/12/19 12:49:05;;;;;;;28.20;15.20;;;;;;;-3.29;73.65;101128.55;206795;1293;141854;-62
2022/12/19 12:54:14;;;;;;;39.90;20.40;;;;;;;-3.31;73.57;101133.21;207626;1299;141156;-62
2022/12/19 12:59:25;;;;;;;38.80;19.80;;;;;;;-3.29;73.86;101138.52;209098;1299;140711;-63
2022/12/19 13:04:32;;;;;;;38.30;17.00;;;;;;;-3.26;74.15;101143.16;209781;1307;139701;-64
2022/12/19 13:09:36;;;;;;;37.50;16.50;;;;;;;-3.29;73.86;101125.83;209445;1299;139869;-65
2022/12/19 13:14:44;;;;;;;45.70;20.40;;;;;;;-3.31;73.70;101122.30;209588;1301;139872;-64
2022/12/19 13:20:04;;;;;;;40.80;18.10;;;;;;;-3.36;73.89;101112.82;209650;1284;141071;-66
2022/12/19 13:25:46;;;;;;;34.10;18.90;;;;;;;-3.46;73.59;101105.81;208554;1291;140318;-65
2022/12/19 13:31:09;;;;;;;50.40;21.70;;;;;;;-3.52;73.71;101093.45;209274;1300;250087;-65
2022/12/19 13:36:48;;;;;;;42.90;20.70;;;;;;;-3.56;73.55;101093.00;209341;1291;235113;-65
2022/12/19 13:47:44;;;;;;;47.00;21.70;;;;;;;-3.85;73.54;101060.40;207854;1290;140376;-65
2022/12/19 13:52:49;;;;;;;36.50;18.90;;;;;;;-3.94;73.80;101049.35;207271;1292;142250;-61
2022/12/19 13:57:54;;;;;;;40.90;20.00;;;;;;;-3.99;73.89;101046.09;208126;1299;140765;-61
2022/12/19 14:03:00;;;;;;;45.20;22.10;;;;;;;-4.13;73.92;101036.34;206732;1299;139442;-65
2022/12/19 14:08:06;;;;;;;38.80;19.20;;;;;;;-4.28;74.02;101041.40;207897;1299;140627;-62
2022/12/19 14:18:59;;;;;;;52.90;22.90;;;;;;;-4.55;74.30;101027.20;208081;1293;246326;-62
2022/12/19 14:24:21;;;;;;;49.10;22.00;;;;;;;-4.66;74.64;101015.43;208401;1299;233307;-64
2022/12/19 14:29:40;;;;;;;42.40;17.60;;;;;;;-4.67;74.89;101010.29;207866;1293;243598;-62
2022/12/19 14:35:09;;;;;;;40.50;19.40;;;;;;;-4.69;75.04;101004.07;209098;1298;140515;-61
2022/12/19 14:40:40;;;;;;;42.80;21.40;;;;;;;-4.72;74.99;101001.85;208081;1299;140762;-62
2022/12/19 14:46:09;;;;;;;54.20;23.20;;;;;;;-4.73;75.15;100993.58;207653;1291;139742;-61
2022/12/19 14:51:37;;;;;;;49.70;23.30;;;;;;;-4.83;75.25;100983.51;208334;1289;246277;-62
2022/12/19 14:57:02;;;;;;;48.80;23.50;;;;;;;-4.90;75.28;100981.91;209682;1294;141626;-63
2022/12/19 15:02:08;;;;;;;46.40;22.10;;;;;;;-4.89;75.40;100975.57;209584;1300;140398;-62
2022/12/19 15:07:17;;;;;;;44.80;22.80;;;;;;;-4.92;75.62;100981.19;209650;1292;140865;-62
2022/12/19 15:18:25;;;;;;;48.40;23.60;;;;;;;-4.98;75.44;100974.51;209262;1299;247949;-63
2022/12/19 15:23:31;;;;;;;37.40;18.70;;;;;;;-5.01;75.64;100960.52;209647;1300;140096;-63
2022/12/19 15:28:41;;;;;;;49.30;22.10;;;;;;;-5.05;75.88;100954.20;209013;1296;140780;-63
2022/12/19 15:33:47;;;;;;;48.00;24.20;;;;;;;-5.06;75.98;100962.38;208549;1299;140658;-62
2022/12/19 15:39:14;;;;;;;39.20;19.20;;;;;;;-5.11;76.11;100953.89;208756;1286;140898;-64
2022/12/19 15:44:29;;;;;;;33.50;16.90;;;;;;;-5.09;76.45;100955.66;208449;1299;140257;-62
2022/12/19 15:49:35;;;;;;;53.10;28.10;;;;;;;-5.14;76.12;100952.48;207337;1290;139332;-62
2022/12/19 15:54:39;;;;;;;40.20;19.60;;;;;;;-5.18;76.27;100939.61;208106;1299;141483;-62
2022/12/19 15:59:58;;;;;;;53.10;23.40;;;;;;;-5.18;76.47;100925.91;208113;1291;140474;-63
2022/12/19 16:05:05;;;;;;;52.40;22.70;;;;;;;-5.16;76.77;100930.48;208474;1291;140894;-62
2022/12/19 16:10:11;;;;;;;46.90;22.00;;;;;;;-5.18;76.77;100922.61;207522;1299;139934;-63
2022/12/19 16:15:29;;;;;;;54.60;23.00;;;;;;;-5.17;76.79;100917.72;207479;1291;140527;-62
2022/12/19 16:20:36;;;;;;;51.60;26.80;;;;;;;-5.15;77.11;100908.36;208535;1300;140654;-63
2022/12/19 16:25:44;;;;;;;51.70;23.70;;;;;;;-5.15;77.46;100895.53;207476;1292;140255;-63
2022/12/19 16:30:49;;;;;;;39.80;20.00;;;;;;;-5.07;77.52;100891.73;207343;1293;139672;-62
2022/12/19 16:35:57;;;;;;;53.10;27.50;;;;;;;-4.96;77.83;100894.46;208076;1291;141479;-63
2022/12/19 16:41:29;;;;;;;57.00;30.90;;;;;;;-4.90;78.09;100892.14;207522;1290;141341;-64
2022/12/19 16:46:44;;;;;;;65.20;29.70;;;;;;;-4.82;77.91;100889.98;207409;1299;142969;-62
2022/12/19 16:51:54;;;;;;;50.20;25.50;;;;;;;-4.80;78.39;100884.11;208527;1301;139671;-62
2022/12/19 16:57:01;;;;;;;53.10;27.60;;;;;;;-4.74;78.33;100873.11;209012;1297;140923;-63
2022/12/19 17:02:37;;;;;;;59.30;29.60;;;;;;;-4.65;78.20;100864.49;209303;1290;219086;-63
2022/12/19 17:07:41;;;;;;;59.90;24.60;;;;;;;-4.58;78.45;100857.42;209653;1293;140282;-63
2022/12/19 17:12:48;;;;;;;43.60;22.00;;;;;;;-4.50;78.34;100847.95;209599;1300;141262;-64
2022/12/19 17:17:59;;;;;;;34.90;18.70;;;;;;;-4.44;78.61;100829.98;209499;1307;141165;-65
2022/12/19 17:23:19;;;;;;;71.20;29.90;;;;;;;-4.35;78.87;100824.48;209349;1294;140888;-64
2022/12/19 17:28:26;;;;;;;45.50;20.80;;;;;;;-4.22;78.66;100836.66;209570;1286;139889;-63
2022/12/19 17:33:35;;;;;;;59.90;29.10;;;;;;;-4.14;78.69;100832.24;208837;1300;139249;-62
2022/12/19 17:38:40;;;;;;;56.30;27.00;;;;;;;-4.04;78.76;100831.21;209627;1292;141992;-63
2022/12/19 17:43:44;;;;;;;59.50;26.70;;;;;;;-3.94;78.95;100817.92;209646;1289;140694;-65
2022/12/19 17:48:52;;;;;;;46.70;23.70;;;;;;;-3.90;78.82;100796.77;209918;1306;140613;-63
2022/12/19 17:53:56;;;;;;;54.30;27.00;;;;;;;-3.80;79.03;100788.37;209812;1302;140186;-63
2022/12/19 17:59:02;;;;;;;46.70;22.80;;;;;;;-3.67;79.25;100777.34;209677;1300;142279;-63
2022/12/19 18:04:16;;;;;;;33.30;17.90;;;;;;;-3.61;79.35;100768.19;209696;1300;139988;-62
2022/12/19 18:09:23;;;;;;;52.60;22.50;;;;;;;-3.49;79.42;100765.11;209683;1301;139500;-64
2022/12/19 18:14:29;;;;;;;;;;;;;;;-3.38;79.47;100762.17;209661;1300;141762;-64
2022/12/19 18:19:34;;;;;;;46.70;22.10;;;;;;;-3.27;79.65;100772.27;210238;1284;125902;-64
2022/12/19 18:24:39;;;;;;;49.80;26.30;;;;;;;-3.14;79.58;100786.52;209534;1291;153943;-64
2022/12/19 18:35:55;;;;;;;44.50;21.10;;;;;;;-2.85;79.90;100785.09;206701;1322;659060;-65
2022/12/19 18:41:01;;;;;;;50.60;23.10;;;;;;;-2.71;79.75;100769.17;205806;1293;140176;-63
2022/12/19 18:46:15;;;;;;;27.10;17.10;;;;;;;-2.65;79.71;100767.45;205368;1307;180528;-62
2022/12/19 18:51:21;;;;;;;36.70;18.30;;;;;;;-2.61;79.93;100758.40;207435;1297;138848;-63
2022/12/19 18:56:27;;;;;;;40.30;18.80;;;;;;;-2.52;79.65;100753.17;206210;1304;139404;-64
2022/12/19 19:01:38;;;;;;;44.40;21.80;;;;;;;-2.42;79.91;100747.45;208720;1306;140059;-63
2022/12/19 19:06:43;;;;;;;50.10;23.30;;;;;;;-2.39;79.86;100745.95;206627;1297;243225;-63
2022/12/19 19:11:54;;;;;;;47.40;24.70;;;;;;;-2.36;80.06;100737.86;208850;1306;139786;-64
2022/12/19 19:17:03;;;;;;;53.20;27.60;;;;;;;-2.30;79.79;100726.59;208459;1314;140848;-64
2022/12/19 19:22:09;;;;;;;46.50;20.90;;;;;;;-2.23;79.98;100730.07;206644;1296;140463;-65
2022/12/19 19:27:14;;;;;;;;;;;;;;;-2.13;79.99;100725.20;207775;1299;140450;-64
2022/12/19 19:32:18;;;;;;;27.90;14.10;;;;;;;-2.03;80.03;100727.26;206749;1305;126449;-64
2022/12/19 19:37:23;;;;;;;42.70;20.00;;;;;;;-1.96;80.07;100720.45;207160;1291;138759;-62
2022/12/19 19:42:29;;;;;;;47.40;21.10;;;;;;;-1.91;80.13;100713.00;206773;1300;139139;-63
2022/12/19 19:47:36;;;;;;;48.10;24.80;;;;;;;-1.83;80.05;100709.67;206852;1299;139781;-63
2022/12/19 19:52:40;;;;;;;41.70;20.60;;;;;;;-1.71;80.13;100701.88;205436;1299;139709;-63
2022/12/19 19:57:44;;;;;;;39.00;16.80;;;;;;;-1.67;80.36;100705.88;207351;1299;141412;-63
2022/12/19 20:02:49;;;;;;;42.60;20.20;;;;;;;-1.64;80.23;100707.23;206255;1293;139025;-62
2022/12/19 20:07:55;;;;;;;38.50;20.70;;;;;;;-1.61;80.34;100700.98;209482;1298;139593;-62
2022/12/19 20:12:58;;;;;;;45.30;23.20;;;;;;;-1.53;80.26;100692.33;207277;1292;140287;-62
2022/12/19 20:18:02;;;;;;;41.80;19.00;;;;;;;-1.43;80.34;100688.58;208088;1283;140344;-62
2022/12/19 20:23:06;;;;;;;33.10;18.90;;;;;;;-1.38;80.30;100677.19;207693;1291;139379;-62
2022/12/19 20:28:09;;;;;;;19.00;11.00;;;;;;;-1.36;80.61;100673.90;208390;1290;139913;-66
2022/12/19 20:33:14;;;;;;;36.40;17.40;;;;;;;-1.30;80.33;100677.05;208846;1293;139472;-61
2022/12/19 20:38:19;;;;;;;36.90;19.70;;;;;;;-1.22;80.55;100670.55;207504;1293;225079;-62
2022/12/19 20:43:23;;;;;;;30.70;15.10;;;;;;;-1.17;80.43;100671.48;207813;1293;140698;-61
2022/12/19 20:48:30;;;;;;;30.70;13.30;;;;;;;-1.15;80.71;100659.65;208371;1284;139660;-61
2022/12/19 20:53:36;;;;;;;28.90;16.10;;;;;;;-1.08;80.84;100655.34;207091;1292;141503;-62
2022/12/19 20:58:40;;;;;;;30.60;15.70;;;;;;;-0.98;80.58;100653.45;208687;1292;139922;-62
2022/12/19 21:03:45;;;;;;;34.90;16.90;;;;;;;-0.93;80.45;100652.84;209540;1298;141004;-65
2022/12/19 21:08:53;;;;;;;28.90;13.60;;;;;;;-0.91;80.38;100648.04;209289;1292;139924;-64
2022/12/19 21:14:04;;;;;;;36.30;17.30;;;;;;;-0.80;80.58;100647.04;209813;1290;245136;-64
2022/12/19 21:19:09;;;;;;;29.40;13.90;;;;;;;-0.74;80.24;100643.02;209891;1292;139349;-65
2022/12/19 21:24:15;;;;;;;28.90;14.10;;;;;;;-0.69;80.47;100634.88;208548;1291;140730;-64
2022/12/19 21:29:20;;;;;;;30.60;15.70;;;;;;;-0.58;80.32;100639.28;208971;1283;140479;-64
2022/12/19 21:34:25;;;;;;;31.10;13.40;;;;;;;-0.51;79.79;100622.73;209059;1290;139385;-61
2022/12/19 21:39:29;;;;;;;41.00;20.50;;;;;;;-0.50;79.90;100616.69;208044;1292;139871;-63
2022/12/19 21:44:35;;;;;;;24.90;12.90;;;;;;;-0.49;79.99;100609.44;207257;1291;140679;-63
2022/12/19 21:49:40;;;;;;;39.80;20.00;;;;;;;-0.44;79.93;100615.24;208668;1291;140271;-64
2022/12/19 21:54:46;;;;;;;29.70;17.00;;;;;;;-0.41;79.71;100614.14;207609;1297;141659;-63
2022/12/19 21:59:50;;;;;;;32.90;17.60;;;;;;;-0.38;80.11;100604.37;207394;1293;140714;-68
2022/12/19 22:04:55;;;;;;;34.60;18.00;;;;;;;-0.36;80.22;100597.36;207931;1292;140468;-65
2022/12/19 22:10:00;;;;;;;33.00;16.80;;;;;;;-0.28;80.18;100589.31;207690;1294;140872;-67
2022/12/19 22:15:05;;;;;;;32.50;15.10;;;;;;;-0.28;79.83;100580.38;207532;1289;141519;-69
2022/12/19 22:20:10;;;;;;;29.90;18.70;;;;;;;-0.29;80.13;100578.45;207802;1294;141278;-68
2022/12/19 22:25:16;;;;;;;19.40;9.10;;;;;;;-0.27;80.31;100579.63;208073;1293;139508;-66
2022/12/19 22:30:20;;;;;;;26.80;13.10;;;;;;;-0.21;79.88;100578.17;208896;1294;139298;-65
2022/12/19 22:35:26;;;;;;;28.50;14.30;;;;;;;-0.15;80.03;100577.95;207291;1284;140851;-65
2022/12/19 22:40:31;;;;;;;30.30;15.70;;;;;;;-0.14;80.04;100572.41;207438;1304;139046;-68
2022/12/19 22:45:36;;;;;;;27.70;12.30;;;;;;;-0.12;80.12;100565.42;207321;1283;140780;-67
2022/12/19 22:50:45;;;;;;;29.50;17.00;;;;;;;-0.06;80.05;100563.41;209633;1298;140820;-64
2022/12/19 22:55:50;;;;;;;27.30;15.50;;;;;;;-0.03;80.08;100558.66;209107;1291;140768;-66
2022/12/19 23:00:55;;;;;;;27.20;14.70;;;;;;;-0.03;79.94;100555.64;209994;1300;139826;-66
2022/12/19 23:06:01;;;;;;;27.60;17.20;;;;;;;0.02;79.91;100555.16;209568;1298;139950;-68
2022/12/19 23:11:08;;;;;;;28.80;14.70;;;;;;;0.05;80.03;100550.86;209369;1298;139650;-68
2022/12/19 23:16:12;;;;;;;25.80;13.70;;;;;;;0.06;80.23;100549.17;209138;1290;139584;-66
2022/12/19 23:21:22;;;;;;;27.70;15.20;;;;;;;0.12;80.04;100546.52;209715;1298;140121;-69
2022/12/19 23:26:31;;;;;;;40.80;18.70;;;;;;;0.16;80.38;100546.25;208060;1298;140570;-67
2022/12/19 23:31:39;;;;;;;27.00;16.50;;;;;;;0.17;80.44;100539.08;207760;1290;139649;-66